Time;durP1;ratioP1;P1;durP2;ratioP2;P2;SDS_P1;SDS_P2;PMS_P1;PMS_P2;Temp;Humidity;BMP_temperature;BMP_pressure;BME280_temperature;BME280_humidity;BME280_pressure;Samples;Min_cycle;Max_cycle;Signal;HPM_P1;HPM_P2
2023/09/05 00:00:05;;;;;;;13.63;8.93;;;16.00;99.90;;;;;;4902707;29;20036;-79
2023/09/05 00:02:31;;;;;;;10.30;8.20;;;16.00;99.90;;;;;;4901317;29;20040;-79
2023/09/05 00:04:56;;;;;;;13.05;8.60;;;16.00;99.90;;;;;;4902015;29;20409;-79
2023/09/05 00:07:23;;;;;;;13.63;8.18;;;16.00;99.90;;;;;;4898563;29;20478;-79
2023/09/05 00:09:49;;;;;;;12.15;8.80;;;16.00;99.90;;;;;;4895288;29;20405;-77
2023/09/05 00:12:14;;;;;;;14.27;8.40;;;16.00;99.90;;;;;;4900555;29;20036;-79
2023/09/05 00:14:40;;;;;;;13.50;8.85;;;16.00;99.90;;;;;;4900868;29;20114;-79
2023/09/05 00:17:06;;;;;;;12.32;8.18;;;16.00;99.90;;;;;;4897601;29;20105;-79
2023/09/05 00:19:31;;;;;;;13.80;9.18;;;16.10;99.90;;;;;;5335616;23;20106;-79
2023/09/05 00:21:57;;;;;;;14.15;9.73;;;16.00;99.90;;;;;;4931184;29;20091;-79
2023/09/05 00:24:27;;;;;;;13.30;9.10;;;16.00;99.90;;;;;;4935016;29;20098;-80
2023/09/05 00:26:53;;;;;;;13.35;9.52;;;16.00;99.90;;;;;;4943225;29;20035;-79
2023/09/05 00:29:19;;;;;;;12.48;8.60;;;16.00;99.90;;;;;;4941341;28;20102;-79
2023/09/05 00:31:46;;;;;;;12.68;9.57;;;15.90;99.90;;;;;;4945184;29;20075;-79
2023/09/05 00:34:13;;;;;;;12.65;9.68;;;15.90;99.90;;;;;;4942931;28;20027;-79
2023/09/05 00:36:39;;;;;;;13.95;9.02;;;15.80;99.90;;;;;;4940546;28;20035;-79
2023/09/05 00:39:05;;;;;;;12.98;8.90;;;15.80;99.90;;;;;;4943321;29;20051;-78
2023/09/05 00:41:32;;;;;;;14.10;9.60;;;15.80;99.90;;;;;;4947954;28;20494;-79
2023/09/05 00:43:59;;;;;;;16.00;11.20;;;15.80;99.90;;;;;;4937495;28;20023;-79
2023/09/05 00:46:25;;;;;;;17.00;11.40;;;15.80;99.90;;;;;;4939390;28;20090;-79
2023/09/05 00:48:52;;;;;;;15.02;11.85;;;15.80;99.90;;;;;;4941547;29;20039;-79
2023/09/05 00:51:20;;;;;;;15.85;11.32;;;15.70;99.90;;;;;;4941444;29;20130;-78
2023/09/05 00:53:46;;;;;;;17.00;11.82;;;15.80;99.90;;;;;;4939174;28;20154;-79
2023/09/05 00:56:11;;;;;;;16.25;11.50;;;15.70;99.90;;;;;;4936506;28;20660;-78
2023/09/05 00:58:37;;;;;;;20.63;12.27;;;15.70;99.90;;;;;;4941469;28;20039;-79
2023/09/05 01:01:02;;;;;;;16.35;11.52;;;15.70;99.90;;;;;;4943462;29;20098;-79
2023/09/05 01:03:28;;;;;;;16.25;11.65;;;15.70;99.90;;;;;;4940257;28;20149;-79
2023/09/05 01:05:59;;;;;;;19.38;11.88;;;15.70;99.90;;;;;;4942250;29;20504;-78
2023/09/05 01:08:28;;;;;;;;;;;15.70;99.90;;;;;;4937751;29;20027;-79
2023/09/05 01:11:00;;;;;;;17.67;11.23;;;15.60;99.90;;;;;;4939665;28;19926;-79
2023/09/05 01:13:27;;;;;;;17.48;10.60;;;15.60;99.90;;;;;;4937666;28;20040;-78
2023/09/05 01:15:53;;;;;;;19.40;12.10;;;15.60;99.90;;;;;;4939793;29;20035;-78
2023/09/05 01:18:20;;;;;;;20.77;12.13;;;15.50;99.90;;;;;;4944097;28;20055;-79
2023/09/05 01:20:59;;;;;;;20.08;12.38;;;15.50;99.90;;;;;;4940918;29;20066;-78
2023/09/05 01:23:31;;;;;;;17.55;11.60;;;15.50;99.90;;;;;;4939207;28;20035;-79
2023/09/05 01:25:59;;;;;;;18.50;12.50;;;15.50;99.90;;;;;;4936686;28;20042;-79
2023/09/05 01:28:26;;;;;;;17.67;11.25;;;15.40;99.90;;;;;;4937380;28;20094;-79
2023/09/05 01:30:53;;;;;;;15.98;11.93;;;15.40;99.90;;;;;;4935524;28;20079;-79
2023/09/05 01:33:18;;;;;;;19.85;12.70;;;15.40;99.90;;;;;;4937365;28;20035;-78
2023/09/05 01:35:44;;;;;;;16.55;11.95;;;15.40;99.90;;;;;;4936815;28;20086;-79
2023/09/05 01:38:10;;;;;;;17.67;11.43;;;15.40;99.90;;;;;;4929560;29;20035;-78
2023/09/05 01:40:36;;;;;;;16.17;11.15;;;15.30;99.90;;;;;;4935405;29;20131;-78
2023/09/05 01:43:02;;;;;;;20.63;11.35;;;15.30;99.90;;;;;;4938412;28;20102;-78
2023/09/05 01:45:27;;;;;;;19.20;12.50;;;15.20;99.90;;;;;;4938300;28;20079;-76
2023/09/05 01:47:53;;;;;;;21.23;12.60;;;15.20;99.90;;;;;;4942797;29;20027;-78
2023/09/05 01:50:21;;;;;;;16.98;12.32;;;15.20;99.90;;;;;;4938368;29;20047;-79
2023/09/05 01:52:47;;;;;;;16.20;11.15;;;15.20;99.90;;;;;;4938736;29;20074;-78
2023/09/05 01:55:12;;;;;;;20.23;12.27;;;15.20;99.90;;;;;;4936985;28;20055;-78
2023/09/05 01:57:38;;;;;;;21.55;13.00;;;15.20;99.90;;;;;;4931898;28;20027;-78
2023/09/05 02:00:04;;;;;;;20.77;13.57;;;15.20;99.90;;;;;;4937958;29;20035;-79
2023/09/05 02:02:29;;;;;;;22.92;13.07;;;15.20;99.90;;;;;;4934256;28;20135;-78
2023/09/05 02:04:55;;;;;;;19.50;13.77;;;15.20;99.90;;;;;;4942656;28;20111;-79
2023/09/05 02:07:21;;;;;;;19.95;12.93;;;15.30;99.90;;;;;;4940160;29;20043;-78
2023/09/05 02:09:46;;;;;;;23.15;13.70;;;15.30;99.90;;;;;;4937084;29;20032;-79
2023/09/05 02:12:12;;;;;;;25.00;13.90;;;15.30;99.90;;;;;;4943334;28;20134;-78
2023/09/05 02:14:38;;;;;;;21.00;13.35;;;15.30;99.90;;;;;;4950301;28;20031;-79
2023/09/05 02:17:03;;;;;;;15.20;10.73;;;15.20;99.90;;;;;;4937695;29;20031;-78
2023/09/05 02:19:29;;;;;;;15.20;10.23;;;15.10;99.90;;;;;;4902267;28;1122585;-79
2023/09/05 02:21:55;;;;;;;19.63;10.85;;;15.10;99.90;;;;;;4934419;28;20150;-79
2023/09/05 02:24:21;;;;;;;16.88;11.75;;;15.00;99.90;;;;;;4936757;28;20067;-78
2023/09/05 02:26:47;;;;;;;19.70;12.32;;;15.00;99.90;;;;;;4942252;29;20027;-78
2023/09/05 02:29:12;;;;;;;20.25;12.75;;;15.00;99.90;;;;;;4944032;28;20468;-78
2023/09/05 02:31:38;;;;;;;17.45;11.30;;;15.00;99.90;;;;;;4949379;28;20031;-79
2023/09/05 02:34:03;;;;;;;16.17;11.38;;;15.00;99.90;;;;;;4948549;28;20043;-79
2023/09/05 02:36:30;;;;;;;19.35;12.18;;;15.00;99.90;;;;;;4950977;28;20042;-79
2023/09/05 02:38:58;;;;;;;14.82;10.27;;;15.00;99.90;;;;;;4946250;28;20039;-78
2023/09/05 02:41:24;;;;;;;16.10;10.23;;;15.00;99.90;;;;;;4953765;28;20121;-78
2023/09/05 02:43:50;;;;;;;14.50;9.85;;;14.90;99.90;;;;;;4948682;29;20141;-78
2023/09/05 02:46:15;;;;;;;16.35;10.18;;;14.90;99.90;;;;;;4949644;29;20537;-78
2023/09/05 02:48:42;;;;;;;16.15;10.63;;;14.90;99.90;;;;;;4946763;28;20042;-78
2023/09/05 02:51:10;;;;;;;16.63;11.65;;;14.80;99.90;;;;;;4945959;28;20046;-78
2023/09/05 02:53:36;;;;;;;13.57;10.13;;;14.80;99.90;;;;;;4942905;29;20032;-78
2023/09/05 02:56:02;;;;;;;17.30;10.95;;;14.70;99.90;;;;;;4947903;29;20102;-78
2023/09/05 02:58:28;;;;;;;16.13;10.65;;;14.70;99.90;;;;;;4947059;29;20036;-78
2023/09/05 03:01:05;;;;;;;22.27;12.63;;;14.70;99.90;;;;;;4946782;29;20041;-78
2023/09/05 03:03:31;;;;;;;18.33;12.25;;;14.70;99.90;;;;;;4943875;29;20066;-78
2023/09/05 03:06:06;;;;;;;18.70;11.98;;;14.70;99.90;;;;;;4946328;28;20126;-78
2023/09/05 03:08:34;;;;;;;20.58;11.65;;;14.70;99.90;;;;;;4941033;28;20389;-78
2023/09/05 03:11:00;;;;;;;17.17;11.48;;;14.70;99.90;;;;;;4938101;29;20147;-78
2023/09/05 03:13:26;;;;;;;19.38;11.20;;;14.80;99.90;;;;;;4945986;29;20035;-78
2023/09/05 03:15:52;;;;;;;20.42;12.43;;;14.80;99.90;;;;;;4942966;29;20031;-78
2023/09/05 03:18:18;;;;;;;20.38;12.20;;;14.80;99.90;;;;;;4943131;28;20038;-78
2023/09/05 03:20:44;;;;;;;17.27;11.57;;;14.80;99.90;;;;;;4946066;28;20377;-78
2023/09/05 03:23:11;;;;;;;17.45;11.15;;;14.80;99.90;;;;;;4946566;28;20035;-78
2023/09/05 03:25:37;;;;;;;17.92;11.30;;;14.90;99.90;;;;;;4941647;29;20028;-78
2023/09/05 03:28:03;;;;;;;21.27;12.52;;;14.90;99.90;;;;;;4946467;28;20159;-78
2023/09/05 03:30:28;;;;;;;16.63;11.15;;;14.90;99.90;;;;;;4946384;29;20066;-78
2023/09/05 03:32:54;;;;;;;14.13;10.25;;;14.90;99.90;;;;;;4946476;29;20050;-77
2023/09/05 03:35:20;;;;;;;12.98;9.65;;;14.90;99.90;;;;;;4940611;28;20027;-78
2023/09/05 03:37:45;;;;;;;14.63;9.38;;;14.80;99.90;;;;;;4946991;28;20178;-77
2023/09/05 03:40:12;;;;;;;13.65;9.70;;;14.70;99.90;;;;;;4945425;28;20607;-77
2023/09/05 03:42:38;;;;;;;14.50;10.05;;;14.60;99.90;;;;;;4941189;28;20456;-77
2023/09/05 03:45:04;;;;;;;12.75;9.68;;;14.50;99.90;;;;;;4945815;29;20106;-77
2023/09/05 03:47:30;;;;;;;19.88;11.77;;;14.50;99.90;;;;;;4943483;28;20039;-77
2023/09/05 03:49:55;;;;;;;17.48;11.23;;;14.50;99.90;;;;;;4940152;29;20484;-78
2023/09/05 03:52:21;;;;;;;17.15;10.88;;;14.50;99.90;;;;;;4943881;28;20043;-78
2023/09/05 03:54:46;;;;;;;17.00;11.38;;;14.50;99.90;;;;;;4935512;29;20032;-77
2023/09/05 03:57:12;;;;;;;17.75;12.00;;;14.60;99.90;;;;;;4943003;29;20512;-79
2023/09/05 03:59:38;;;;;;;23.50;13.45;;;14.60;99.90;;;;;;4944924;28;20046;-77
2023/09/05 04:02:03;;;;;;;18.35;12.88;;;14.80;99.90;;;;;;4943857;29;20067;-78
2023/09/05 04:04:29;;;;;;;20.67;13.40;;;14.90;99.90;;;;;;4939888;28;20055;-78
2023/09/05 04:06:54;;;;;;;25.67;13.77;;;14.90;99.90;;;;;;4946440;29;20183;-78
2023/09/05 04:09:20;;;;;;;23.83;14.30;;;15.00;99.90;;;;;;4939839;28;20485;-78
2023/09/05 04:11:45;;;;;;;23.67;15.43;;;15.10;99.90;;;;;;4938237;29;20087;-77
2023/09/05 04:14:11;;;;;;;26.33;15.27;;;15.30;99.90;;;;;;4929802;28;20039;-77
2023/09/05 04:16:37;;;;;;;23.40;14.93;;;15.30;99.90;;;;;;4944157;28;20119;-77
2023/09/05 04:19:02;;;;;;;27.20;17.38;;;15.30;99.90;;;;;;4939956;29;20106;-77
2023/09/05 04:21:28;;;;;;;23.77;14.88;;;15.50;99.90;;;;;;4941646;28;20154;-77
2023/09/05 04:23:53;;;;;;;20.40;14.10;;;15.50;99.90;;;;;;4944707;29;20372;-77
2023/09/05 04:26:21;;;;;;;17.13;11.82;;;15.50;99.90;;;;;;4944450;28;20066;-77
2023/09/05 04:28:47;;;;;;;17.85;12.98;;;15.50;99.90;;;;;;4943135;28;20034;-77
2023/09/05 04:31:18;;;;;;;22.65;13.38;;;15.30;99.90;;;;;;4948326;28;20499;-77
2023/09/05 04:33:43;;;;;;;19.08;12.88;;;15.30;99.90;;;;;;4940273;28;20051;-77
2023/09/05 04:36:09;;;;;;;18.65;12.77;;;15.20;99.90;;;;;;4946077;29;20389;-77
2023/09/05 04:38:35;;;;;;;19.33;12.00;;;15.10;99.90;;;;;;4940515;29;20039;-77
2023/09/05 04:41:01;;;;;;;20.98;11.95;;;15.10;99.90;;;;;;4948634;28;20469;-77
2023/09/05 04:43:28;;;;;;;17.23;12.23;;;15.00;99.90;;;;;;4940943;29;20497;-78
2023/09/05 04:45:55;;;;;;;17.10;11.63;;;14.90;99.90;;;;;;4940563;28;20038;-77
2023/09/05 04:48:20;;;;;;;18.77;11.55;;;14.90;99.90;;;;;;4939312;29;20351;-76
2023/09/05 04:50:46;;;;;;;19.75;12.35;;;14.80;99.90;;;;;;4941656;29;20046;-76
2023/09/05 04:53:11;;;;;;;19.40;13.05;;;14.80;99.90;;;;;;4938117;28;20039;-76
2023/09/05 04:55:37;;;;;;;19.83;12.50;;;14.90;99.90;;;;;;4934462;28;20050;-77
2023/09/05 04:58:03;;;;;;;18.00;11.65;;;14.90;99.90;;;;;;4937408;28;20043;-76
2023/09/05 05:00:31;;;;;;;23.67;12.63;;;14.90;99.90;;;;;;4945793;28;20499;-77
2023/09/05 05:02:58;;;;;;;21.08;13.40;;;14.90;99.90;;;;;;4943078;29;20031;-77
2023/09/05 05:05:23;;;;;;;22.50;14.02;;;14.90;99.90;;;;;;4940932;29;20050;-76
2023/09/05 05:07:49;;;;;;;23.20;12.95;;;14.90;99.90;;;;;;4941033;28;21519;-76
2023/09/05 05:10:15;;;;;;;21.60;12.50;;;14.90;99.90;;;;;;4939064;29;20038;-76
2023/09/05 05:12:41;;;;;;;19.20;12.15;;;15.00;99.90;;;;;;4933516;29;20039;-77
2023/09/05 05:15:07;;;;;;;18.58;11.40;;;14.90;99.90;;;;;;4943343;28;20024;-76
2023/09/05 05:17:34;;;;;;;20.10;12.65;;;14.70;99.90;;;;;;4943576;28;20065;-77
2023/09/05 05:19:59;;;;;;;18.33;12.65;;;14.60;99.90;;;;;;4942622;28;20047;-77
2023/09/05 05:22:25;;;;;;;21.70;12.70;;;14.50;99.90;;;;;;4938007;29;20069;-77
2023/09/05 05:24:51;;;;;;;17.98;11.80;;;14.40;99.90;;;;;;4942693;28;20031;-77
2023/09/05 05:27:17;;;;;;;18.50;12.60;;;14.40;99.90;;;;;;4941483;28;20229;-77
2023/09/05 05:29:43;;;;;;;17.08;11.73;;;14.30;99.90;;;;;;4936785;28;20030;-77
2023/09/05 05:32:09;;;;;;;17.80;12.15;;;14.30;99.90;;;;;;4938521;29;20043;-77
2023/09/05 05:34:34;;;;;;;17.70;11.88;;;14.30;99.90;;;;;;4938171;28;20079;-76
2023/09/05 05:37:01;;;;;;;15.65;10.85;;;14.30;99.90;;;;;;4936329;28;20912;-78
2023/09/05 05:39:26;;;;;;;22.45;12.85;;;14.30;99.90;;;;;;4939470;29;20027;-77
2023/09/05 05:41:52;;;;;;;19.85;12.63;;;14.30;99.90;;;;;;4936572;28;20042;-77
2023/09/05 05:44:18;;;;;;;22.05;14.07;;;14.30;99.90;;;;;;4934004;28;20031;-77
2023/09/05 05:46:43;;;;;;;22.17;14.40;;;14.30;99.90;;;;;;4933866;29;20038;-77
2023/09/05 05:49:09;;;;;;;24.15;15.05;;;14.40;99.90;;;;;;4941414;28;20035;-76
2023/09/05 05:51:35;;;;;;;27.40;15.60;;;14.50;99.90;;;;;;4938860;28;20133;-77
2023/09/05 05:54:01;;;;;;;24.65;14.52;;;14.60;99.90;;;;;;4934867;29;20027;-78
2023/09/05 05:56:27;;;;;;;24.65;14.30;;;14.60;99.90;;;;;;4937327;28;20031;-78
2023/09/05 05:58:52;;;;;;;20.98;14.02;;;14.70;99.90;;;;;;4937382;28;20038;-76
2023/09/05 06:01:18;;;;;;;21.85;13.82;;;14.70;99.90;;;;;;4938523;28;20412;-78
2023/09/05 06:03:44;;;;;;;20.85;13.32;;;14.70;99.90;;;;;;4935837;28;20034;-77
2023/09/05 06:06:10;;;;;;;19.00;12.50;;;14.70;99.90;;;;;;4939976;29;20066;-78
2023/09/05 06:08:35;;;;;;;21.02;13.77;;;14.70;99.90;;;;;;4940898;28;20547;-77
2023/09/05 06:11:01;;;;;;;30.45;17.00;;;14.70;99.90;;;;;;4943344;28;20122;-78
2023/09/05 06:13:26;;;;;;;31.30;19.83;;;14.70;99.90;;;;;;4948079;28;20042;-78
2023/09/05 06:15:52;;;;;;;22.20;14.05;;;14.70;99.90;;;;;;4945864;28;20090;-78
2023/09/05 06:18:18;;;;;;;20.48;12.98;;;14.80;99.90;;;;;;4946842;28;20031;-79
2023/09/05 06:20:44;;;;;;;18.45;12.80;;;14.80;99.90;;;;;;4944177;28;20043;-78
2023/09/05 06:23:09;;;;;;;16.63;11.13;;;14.80;99.90;;;;;;4945796;28;20057;-79
2023/09/05 06:25:35;;;;;;;22.23;12.48;;;14.80;99.90;;;;;;4944893;28;20027;-78
2023/09/05 06:28:02;;;;;;;27.90;16.10;;;15.00;99.90;;;;;;4945549;28;20034;-78
2023/09/05 06:30:27;;;;;;;20.48;13.13;;;15.00;99.90;;;;;;4944428;28;20037;-78
2023/09/05 06:32:53;;;;;;;18.55;12.02;;;15.10;99.90;;;;;;4942447;28;20043;-79
2023/09/05 06:35:19;;;;;;;23.58;14.48;;;15.20;99.90;;;;;;4936498;29;20031;-79
2023/09/05 06:37:44;;;;;;;24.38;14.13;;;15.40;99.90;;;;;;4947636;29;20031;-78
2023/09/05 06:40:15;;;;;;;25.98;14.98;;;15.50;99.90;;;;;;4943413;29;20059;-78
2023/09/05 06:42:43;;;;;;;974.07;632.53;;;15.60;99.90;;;;;;4948910;28;20481;-78
2023/09/05 06:45:10;;;;;;;52.00;28.60;;;15.80;99.90;;;;;;4949125;28;20059;-78
2023/09/05 06:47:35;;;;;;;27.95;16.83;;;15.90;99.90;;;;;;4948237;29;20749;-78
2023/09/05 06:50:05;;;;;;;29.08;18.15;;;16.10;99.90;;;;;;4941467;29;20042;-78
2023/09/05 06:52:32;;;;;;;29.75;17.77;;;16.30;99.90;;;;;;4938610;29;20039;-76
2023/09/05 06:54:57;;;;;;;26.05;15.68;;;16.50;99.90;;;;;;4945947;29;20062;-77
2023/09/05 06:57:23;;;;;;;27.45;16.38;;;16.80;99.90;;;;;;4945496;29;20125;-76
2023/09/05 06:59:52;;;;;;;66.78;41.60;;;17.00;99.90;;;;;;4944097;29;20437;-77
2023/09/05 07:02:18;;;;;;;25.70;16.17;;;17.30;99.90;;;;;;4947626;29;20465;-89
2023/09/05 07:04:43;;;;;;;25.15;15.65;;;17.90;99.90;;;;;;4942307;28;20035;-87
2023/09/05 07:07:09;;;;;;;21.92;14.43;;;18.10;99.90;;;;;;4946345;29;20035;-88
2023/09/05 07:09:35;;;;;;;27.00;14.45;;;18.30;99.90;;;;;;4939118;29;20144;-86
2023/09/05 07:12:00;;;;;;;20.50;12.52;;;18.40;99.90;;;;;;4949817;28;20700;-89
2023/09/05 07:14:26;;;;;;;16.50;11.80;;;18.50;99.90;;;;;;4965101;28;20035;-88
2023/09/05 07:16:52;;;;;;;19.02;12.55;;;18.60;99.90;;;;;;4949394;28;20027;-88
2023/09/05 07:19:18;;;;;;;18.50;11.60;;;18.50;99.90;;;;;;4951023;28;20385;-88
2023/09/05 07:21:45;;;;;;;17.52;10.95;;;18.60;99.90;;;;;;4961549;28;20048;-88
2023/09/05 07:24:13;;;;;;;18.13;11.13;;;18.70;99.90;;;;;;4945390;28;20038;-87
2023/09/05 07:26:39;;;;;;;13.98;9.63;;;18.80;99.90;;;;;;4952592;28;20054;-88
2023/09/05 07:29:06;;;;;;;15.23;9.48;;;18.90;99.90;;;;;;4948807;28;20563;-87
2023/09/05 07:31:32;;;;;;;16.63;11.00;;;19.00;99.90;;;;;;4950120;29;20130;-88
2023/09/05 07:33:58;;;;;;;14.55;8.80;;;19.20;99.90;;;;;;4950386;29;20441;-87
2023/09/05 07:36:24;;;;;;;14.40;8.57;;;19.30;99.90;;;;;;4947741;28;20066;-88
2023/09/05 07:38:49;;;;;;;15.70;8.95;;;19.50;99.90;;;;;;4953739;28;20077;-88
2023/09/05 07:41:15;;;;;;;17.17;8.73;;;19.70;99.90;;;;;;4951361;28;20036;-87
2023/09/05 07:43:41;;;;;;;10.48;7.15;;;20.40;99.90;;;;;;4944840;29;20111;-89
2023/09/05 07:46:06;;;;;;;11.32;7.32;;;21.00;99.90;;;;;;4931868;29;20063;-88
2023/09/05 07:48:32;;;;;;;7.97;5.97;;;22.70;99.90;;;;;;4940808;29;20034;-87
2023/09/05 07:51:04;;;;;;;9.68;6.10;;;25.20;99.90;;;;;;4962346;28;20540;-89
2023/09/05 07:53:35;;;;;;;9.20;5.55;;;27.80;99.90;;;;;;4941044;29;20035;-89
2023/09/05 07:56:02;;;;;;;9.95;4.30;;;30.20;99.90;;;;;;4943595;28;21000;-88
2023/09/05 07:58:28;;;;;;;7.75;4.65;;;32.00;96.20;;;;;;4940040;29;20469;-89
2023/09/05 08:00:54;;;;;;;6.97;3.83;;;33.50;90.10;;;;;;4947168;29;20038;-89
2023/09/05 08:03:20;;;;;;;9.25;5.68;;;33.70;82.40;;;;;;4947206;28;20571;-86
2023/09/05 08:05:47;;;;;;;5.85;3.92;;;33.00;75.30;;;;;;4957426;28;20036;-88
2023/09/05 08:08:14;;;;;;;7.88;4.47;;;32.90;79.80;;;;;;4935473;28;20058;-89
2023/09/05 08:10:40;;;;;;;5.63;3.40;;;33.40;79.40;;;;;;4929618;29;20035;-90
2023/09/05 08:13:06;;;;;;;5.43;3.30;;;34.30;78.20;;;;;;4938241;29;20503;-90
2023/09/05 08:15:32;;;;;;;4.90;3.20;;;35.30;73.20;;;;;;4953897;28;20040;-88
2023/09/05 08:17:58;;;;;;;6.85;3.55;;;35.90;72.20;;;;;;4938365;29;20086;-90
2023/09/05 08:20:23;;;;;;;5.55;3.10;;;36.60;65.50;;;;;;4927517;29;20078;-88
2023/09/05 08:22:49;;;;;;;6.97;2.97;;;37.00;64.50;;;;;;4935272;29;20090;-90
2023/09/05 08:25:15;;;;;;;5.68;2.80;;;37.10;63.30;;;;;;4938777;29;20088;-89
2023/09/05 08:27:42;;;;;;;5.03;2.67;;;37.30;58.50;;;;;;4936915;29;20031;-89
2023/09/05 08:30:11;;;;;;;4.65;2.47;;;37.10;58.20;;;;;;4941646;28;20127;-89
2023/09/05 08:32:38;;;;;;;4.73;4.17;;;37.50;57.60;;;;;;4929194;29;20036;-88
2023/09/05 08:35:05;;;;;;;6.07;3.47;;;37.30;53.60;;;;;;4930655;29;20513;-89
2023/09/05 08:37:31;;;;;;;3.85;2.65;;;37.60;55.80;;;;;;4940863;29;20505;-87
2023/09/05 08:39:57;;;;;;;4.63;2.35;;;37.80;54.10;;;;;;4944341;29;20100;-88
2023/09/05 08:42:23;;;;;;;4.85;2.67;;;38.20;53.90;;;;;;4947740;29;20130;-89
2023/09/05 08:44:50;;;;;;;6.30;3.13;;;38.80;52.90;;;;;;4945210;29;20062;-92
2023/09/05 08:47:16;;;;;;;3.30;2.33;;;39.00;50.60;;;;;;4944098;29;20042;-89
2023/09/05 08:49:43;;;;;;;3.10;2.15;;;39.20;53.30;;;;;;4940255;29;20039;-90
2023/09/05 08:52:11;;;;;;;4.38;2.65;;;39.20;50.10;;;;;;4946161;29;20062;-89
2023/09/05 08:54:37;;;;;;;4.15;2.00;;;39.40;50.10;;;;;;4939192;29;20027;-92
2023/09/05 08:57:04;;;;;;;3.55;2.40;;;39.80;52.20;;;;;;4940458;29;20046;-90
2023/09/05 08:59:30;;;;;;;3.22;2.17;;;39.90;48.80;;;;;;4934556;29;20047;-89
2023/09/05 09:01:57;;;;;;;7.10;2.20;;;40.00;48.50;;;;;;4935517;29;20046;-87
2023/09/05 09:04:23;;;;;;;3.78;1.90;;;39.90;48.80;;;;;;4935730;29;20042;-88
2023/09/05 09:06:55;;;;;;;3.35;2.13;;;40.00;48.10;;;;;;4948206;29;20479;-87
2023/09/05 09:09:40;;;;;;;4.80;2.17;;;40.20;45.40;;;;;;4934936;29;20452;-86
2023/09/05 09:12:06;;;;;;;5.80;2.40;;;40.30;44.40;;;;;;4941688;29;20035;-86
2023/09/05 09:14:32;;;;;;;3.88;2.03;;;40.70;46.50;;;;;;4940600;28;20031;-89
2023/09/05 09:17:00;;;;;;;3.33;2.20;;;41.10;47.40;;;;;;4944666;29;20027;-90
2023/09/05 09:19:29;;;;;;;3.08;2.20;;;41.50;46.60;;;;;;4939861;28;20503;-87
2023/09/05 09:21:55;;;;;;;5.20;2.33;;;42.10;43.80;;;;;;4946281;28;20039;-87
2023/09/05 09:24:20;;;;;;;5.25;2.35;;;42.30;40.50;;;;;;4945328;28;20019;-87
2023/09/05 09:26:46;;;;;;;3.97;2.30;;;41.90;42.30;;;;;;4946534;29;20051;-87
2023/09/05 09:29:12;;;;;;;2.78;1.92;;;41.70;41.70;;;;;;4946739;28;20102;-87
2023/09/05 09:31:37;;;;;;;3.03;2.08;;;41.80;43.90;;;;;;4944420;29;20057;-85
2023/09/05 09:34:03;;;;;;;5.13;2.00;;;42.10;45.60;;;;;;4945190;28;20027;-86
2023/09/05 09:36:37;;;;;;;4.50;2.08;;;42.60;40.40;;;;;;4942445;29;20190;-88
2023/09/05 09:39:10;;;;;;;5.30;1.90;;;42.20;42.10;;;;;;4945518;28;20032;-85
2023/09/05 09:41:41;;;;;;;2.20;1.83;;;42.20;41.10;;;;;;4942927;29;20036;-88
2023/09/05 09:44:06;;;;;;;3.35;2.13;;;42.40;40.90;;;;;;4937572;29;20039;-85
2023/09/05 09:46:32;;;;;;;3.03;2.00;;;42.60;38.90;;;;;;4942443;28;20026;-91
2023/09/05 09:49:00;;;;;;;3.50;2.00;;;42.70;41.00;;;;;;4938662;28;20050;-88
2023/09/05 09:51:31;;;;;;;2.10;1.70;;;42.50;41.60;;;;;;4938811;28;20866;-86
2023/09/05 09:53:59;;;;;;;3.80;2.28;;;42.40;40.30;;;;;;4938076;28;20074;-87
2023/09/05 09:56:27;;;;;;;2.20;1.70;;;42.70;42.40;;;;;;4932726;29;20384;-89
2023/09/05 09:58:56;;;;;;;4.82;1.75;;;42.90;40.50;;;;;;4946639;28;20513;-86
2023/09/05 10:01:23;;;;;;;3.05;2.20;;;43.30;40.60;;;;;;4947622;28;20082;-86
2023/09/05 10:03:49;;;;;;;3.67;2.05;;;43.50;42.00;;;;;;4943146;28;20040;-86
2023/09/05 10:06:16;;;;;;;5.80;2.30;;;43.70;39.70;;;;;;4945640;29;20445;-87
2023/09/05 10:08:43;;;;;;;3.47;1.98;;;43.50;39.00;;;;;;4936963;28;20028;-88
2023/09/05 10:11:10;;;;;;;5.70;1.92;;;43.30;37.40;;;;;;4940573;29;20031;-84
2023/09/05 10:13:37;;;;;;;3.75;1.85;;;43.30;40.40;;;;;;4944992;29;20079;-87
2023/09/05 10:16:03;;;;;;;3.80;2.13;;;43.30;40.00;;;;;;4945842;28;20059;-86
2023/09/05 10:18:32;;;;;;;4.20;2.80;;;42.40;40.80;;;;;;4939682;28;20059;-88
2023/09/05 10:21:01;;;;;;;5.77;2.77;;;41.80;38.10;;;;;;4940798;29;20052;-86
2023/09/05 10:23:31;;;;;;;5.40;2.95;;;41.90;38.60;;;;;;4933952;28;20039;-85
2023/09/05 10:25:57;;;;;;;;;;;42.30;40.50;;;;;;4943311;28;20050;-83
2023/09/05 10:28:27;;;;;;;4.38;2.60;;;42.90;41.60;;;;;;4939034;28;19914;-86
2023/09/05 10:30:54;;;;;;;3.65;2.50;;;43.10;39.70;;;;;;4939791;29;20031;-81
2023/09/05 10:33:51;;;;;;;2.53;2.13;;;43.40;42.80;;;;;;4944766;28;20066;-83
2023/09/05 10:36:41;;;;;;;2.97;2.20;;;43.70;39.10;;;;;;4937869;28;20146;-82
2023/09/05 10:39:24;;;;;;;5.05;2.10;;;43.10;38.80;;;;;;4930805;28;20039;-83
2023/09/05 10:41:51;;;;;;;2.80;1.88;;;42.80;39.60;;;;;;4944924;28;20352;-80
2023/09/05 10:44:16;;;;;;;3.50;2.00;;;42.30;38.90;;;;;;4940980;28;20049;-83
2023/09/05 10:46:42;;;;;;;3.78;2.22;;;42.10;39.70;;;;;;4941669;29;20039;-84
2023/09/05 10:49:14;;;;;;;2.88;1.98;;;42.00;38.70;;;;;;4943972;29;20420;-82
2023/09/05 10:52:20;;;;;;;3.22;2.17;;;41.40;40.80;;;;;;4937420;29;20046;-83
2023/09/05 10:54:46;;;;;;;4.25;1.88;;;41.00;39.90;;;;;;4944502;29;20035;-82
2023/09/05 10:57:37;;;;;;;3.83;2.10;;;41.30;39.40;;;;;;4948145;28;20424;-84
2023/09/05 11:00:37;;;;;;;2.47;2.08;;;40.90;40.40;;;;;;4943812;29;20908;-83
2023/09/05 11:03:12;;;;;;;4.38;1.90;;;40.70;39.30;;;;;;4932978;29;20043;-84
2023/09/05 11:05:40;;;;;;;2.80;2.03;;;41.00;40.40;;;;;;4942308;29;20120;-84
2023/09/05 11:08:20;;;;;;;3.10;1.75;;;41.30;39.60;;;;;;4942958;29;20031;-83
2023/09/05 11:10:45;;;;;;;3.33;2.15;;;41.20;39.00;;;;;;4944660;28;20118;-84
2023/09/05 11:13:14;;;;;;;2.88;2.00;;;40.40;38.20;;;;;;4939296;28;20055;-84
2023/09/05 11:15:43;;;;;;;2.30;1.80;;;40.50;42.20;;;;;;4950149;28;20032;-84
2023/09/05 11:18:17;;;;;;;2.72;2.13;;;40.80;38.50;;;;;;4937820;28;20590;-83
2023/09/05 11:20:46;;;;;;;2.65;2.05;;;40.40;39.10;;;;;;4935159;28;21012;-83
2023/09/05 11:23:21;;;;;;;3.92;2.03;;;39.60;42.90;;;;;;4937289;28;20503;-83
2023/09/05 11:25:47;;;;;;;3.00;2.00;;;38.40;41.80;;;;;;4934919;28;20122;-85
2023/09/05 11:28:14;;;;;;;2.45;2.03;;;37.60;47.30;;;;;;4941074;28;20392;-83
2023/09/05 11:30:44;;;;;;;3.88;2.25;;;36.80;44.00;;;;;;4942312;29;20031;-85
2023/09/05 11:33:14;;;;;;;4.63;2.20;;;36.10;44.30;;;;;;4944028;28;20035;-84
2023/09/05 11:35:43;;;;;;;;;;;35.40;48.70;;;;;;4938024;29;20035;-85
2023/09/05 11:38:09;;;;;;;4.18;2.50;;;34.80;47.80;;;;;;4938037;28;19974;-83
2023/09/05 11:40:35;;;;;;;4.40;2.40;;;34.70;50.10;;;;;;4941529;29;20047;-86
2023/09/05 11:43:12;;;;;;;5.32;2.80;;;34.50;48.10;;;;;;4928103;29;20027;-84
2023/09/05 11:45:39;;;;;;;4.53;2.38;;;34.10;48.20;;;;;;4951232;28;20039;-84
2023/09/05 11:48:08;;;;;;;3.70;2.35;;;33.70;49.20;;;;;;4944648;29;20488;-85
2023/09/05 11:50:34;;;;;;;3.47;2.20;;;33.50;48.90;;;;;;4945688;29;20101;-85
2023/09/05 11:53:03;;;;;;;6.57;2.30;;;33.40;48.60;;;;;;4937717;29;20043;-82
2023/09/05 11:55:29;;;;;;;4.65;2.30;;;32.90;48.80;;;;;;4942832;29;20122;-85
2023/09/05 11:57:56;;;;;;;4.18;2.20;;;32.40;50.30;;;;;;4933258;28;20203;-85
2023/09/05 12:00:24;;;;;;;2.20;2.00;;;32.40;51.40;;;;;;4937867;29;20046;-85
2023/09/05 12:02:54;;;;;;;5.38;2.03;;;32.60;57.20;;;;;;4935973;28;20039;-86
2023/09/05 12:05:20;;;;;;;3.60;2.20;;;33.00;54.30;;;;;;4931533;29;20030;-82
2023/09/05 12:07:50;;;;;;;2.80;2.08;;;33.10;51.40;;;;;;4938011;28;20031;-84
2023/09/05 12:10:16;;;;;;;3.17;2.10;;;33.20;52.10;;;;;;4941112;28;20273;-84
2023/09/05 12:12:55;;;;;;;3.65;2.00;;;32.90;51.50;;;;;;4953403;28;20472;-85
2023/09/05 12:15:32;;;;;;;3.17;2.03;;;32.90;50.80;;;;;;4946726;28;20062;-84
2023/09/05 12:18:05;;;;;;;5.32;2.05;;;33.10;55.40;;;;;;4946997;28;20046;-84
2023/09/05 12:20:32;;;;;;;4.32;2.00;;;32.90;51.90;;;;;;4939567;28;20077;-86
2023/09/05 12:22:58;;;;;;;3.78;2.20;;;32.90;53.40;;;;;;4939023;28;20086;-85
2023/09/05 12:25:26;;;;;;;4.70;2.10;;;32.90;54.00;;;;;;4942757;29;20098;-85
2023/09/05 12:27:55;;;;;;;3.83;2.03;;;32.70;51.30;;;;;;4941412;29;20038;-85
2023/09/05 12:30:32;;;;;;;3.97;2.17;;;32.70;54.80;;;;;;4957019;28;20034;-85
2023/09/05 12:32:58;;;;;;;2.90;2.20;;;32.80;52.50;;;;;;4941424;29;20039;-84
2023/09/05 12:35:25;;;;;;;3.38;2.00;;;32.70;52.50;;;;;;4945116;28;20666;-84